Time;durP1;ratioP1;P1;durP2;ratioP2;P2;SDS_P1;SDS_P2;PMS_P1;PMS_P2;Temp;Humidity;BMP_temperature;BMP_pressure;BME280_temperature;BME280_humidity;BME280_pressure;Samples;Min_cycle;Max_cycle;Signal;HPM_P1;HPM_P2
2023/03/14 00:02:32;;;;;;;93.30;51.13;;;12.40;98.60;;;;;;5031185;28;20052;-79
2023/03/14 00:05:36;;;;;;;84.15;48.33;;;13.60;99.40;;;;;;5031313;28;20069;-78
2023/03/14 00:08:42;;;;;;;85.25;47.80;;;12.40;98.40;;;;;;5031210;28;20056;-78
2023/03/14 00:11:46;;;;;;;79.05;46.03;;;11.30;98.20;;;;;;5030887;28;20037;-78
2023/03/14 00:14:50;;;;;;;78.95;45.80;;;12.20;98.70;;;;;;5030843;28;20052;-78
2023/03/14 00:17:54;;;;;;;80.45;45.60;;;;;;;;;;5030929;28;20048;-78
2023/03/14 00:21:03;;;;;;;75.90;45.00;;;12.20;98.90;;;;;;5030649;28;20401;-79
2023/03/14 00:24:08;;;;;;;83.00;52.25;;;15.40;99.20;;;;;;5030289;28;20048;-79
2023/03/14 00:27:12;;;;;;;91.40;49.47;;;11.60;99.20;;;;;;5030640;28;20432;-79
2023/03/14 00:30:17;;;;;;;89.57;50.88;;;12.20;99.10;;;;;;5030902;28;20040;-79
2023/03/14 00:33:21;;;;;;;88.97;51.55;;;12.20;99.20;;;;;;5030687;28;20064;-79
2023/03/14 00:36:27;;;;;;;92.05;50.92;;;;;;;;;;5029762;28;20432;-79
2023/03/14 00:39:31;;;;;;;91.70;50.55;;;;;;;;;;5029896;28;20064;-79
2023/03/14 00:42:36;;;;;;;86.28;51.30;;;;;;;;;;5029668;28;20512;-79
2023/03/14 00:45:40;;;;;;;85.35;49.15;;;12.00;99.00;;;;;;5030510;28;20049;-78
2023/03/14 00:48:45;;;;;;;87.13;48.67;;;;;;;;;;5030609;28;20041;-78
2023/03/14 00:51:51;;;;;;;78.00;44.55;;;12.10;98.50;;;;;;5030407;28;20041;-79
2023/03/14 00:54:55;;;;;;;75.13;42.78;;;;;;;;;;5030705;28;20064;-78
2023/03/14 00:57:59;;;;;;;78.10;42.08;;;12.50;98.00;;;;;;5030649;28;20048;-79
2023/03/14 01:01:08;;;;;;;71.65;39.72;;;12.40;98.10;;;;;;5030192;28;20053;-79
2023/03/14 01:04:12;;;;;;;76.65;39.60;;;12.40;97.90;;;;;;5029557;28;20040;-79
2023/03/14 01:07:16;;;;;;;68.82;38.63;;;12.30;97.50;;;;;;5029974;28;20390;-78
2023/03/14 01:10:20;;;;;;;67.63;37.08;;;12.20;98.00;;;;;;5030590;28;20052;-79
2023/03/14 01:13:24;;;;;;;70.13;37.47;;;12.10;98.20;;;;;;5029280;28;20045;-79
2023/03/14 01:16:31;;;;;;;75.78;37.90;;;12.00;98.70;;;;;;5029468;28;20048;-78
2023/03/14 01:19:38;;;;;;;59.28;35.78;;;12.00;98.80;;;;;;5030553;28;20041;-79
2023/03/14 01:22:42;;;;;;;57.72;33.85;;;;;;;;;;5030202;28;20040;-79
2023/03/14 01:25:46;;;;;;;60.05;32.00;;;11.80;98.70;;;;;;5030265;28;20060;-79
2023/03/14 01:28:52;;;;;;;56.33;33.45;;;;;;;;;;5030363;28;20128;-79
2023/03/14 01:31:56;;;;;;;58.63;32.95;;;11.90;98.80;;;;;;5030506;28;20036;-79
2023/03/14 01:35:00;;;;;;;63.90;31.20;;;12.00;98.90;;;;;;5030551;28;20531;-79
2023/03/14 01:38:04;;;;;;;52.50;28.67;;;11.90;99.00;;;;;;5032929;28;20056;-79
2023/03/14 01:41:17;;;;;;;48.78;28.95;;;12.00;98.80;;;;;;5032337;28;20410;-78
2023/03/14 01:44:22;;;;;;;53.28;28.58;;;10.50;98.40;;;;;;5032825;28;20048;-78
2023/03/14 01:47:26;;;;;;;54.67;29.20;;;12.10;99.00;;;;;;5033609;28;20555;-78
2023/03/14 01:50:31;;;;;;;58.53;29.25;;;12.00;99.20;;;;;;5032674;28;20413;-78
2023/03/14 01:53:37;;;;;;;53.08;29.67;;;11.90;99.30;;;;;;5033168;28;20064;-78
2023/03/14 01:56:44;;;;;;;48.22;28.63;;;11.90;99.30;;;;;;5033629;28;20065;-78
2023/03/14 02:00:03;;;;;;;51.00;29.30;;;12.00;99.90;;;;;;5032393;28;20049;-78
2023/03/14 02:03:20;;;;;;;56.13;28.98;;;11.50;99.90;;;;;;5033394;28;20520;-79
2023/03/14 02:06:39;;;;;;;49.92;26.45;;;12.00;99.90;;;;;;5032455;28;20048;-78
2023/03/14 02:09:43;;;;;;;45.25;27.83;;;12.10;99.90;;;;;;5032983;28;20048;-78
2023/03/14 02:12:55;;;;;;;54.03;29.73;;;12.00;99.80;;;;;;5032606;28;20048;-79
2023/03/14 02:16:31;;;;;;;58.05;29.08;;;12.10;98.50;;;;;;5038301;28;20044;-79
2023/03/14 02:20:09;;;;;;;46.55;29.88;;;12.60;99.00;;;;;;5033084;28;20496;-77
2023/03/14 02:23:35;;;;;;;61.15;31.27;;;11.70;99.00;;;;;;5032119;28;20045;-77
2023/03/14 02:27:04;;;;;;;51.10;30.10;;;10.80;99.00;;;;;;5032174;28;20116;-79
2023/03/14 02:30:11;;;;;;;48.17;30.23;;;;;;;;;;5032210;28;20040;-78
2023/03/14 02:33:20;;;;;;;48.15;29.70;;;11.80;99.20;;;;;;5031897;28;20052;-78
2023/03/14 02:36:25;;;;;;;50.13;30.25;;;11.60;99.80;;;;;;5031869;28;20044;-78
2023/03/14 02:39:41;;;;;;;52.72;29.88;;;12.10;99.70;;;;;;5031656;28;20167;-78
2023/03/14 02:42:48;;;;;;;53.75;32.22;;;;;;;;;;5032151;28;20041;-78
2023/03/14 02:45:53;;;;;;;57.95;30.80;;;11.70;99.50;;;;;;5030949;28;20040;-78
2023/03/14 02:49:10;;;;;;;53.08;30.33;;;11.60;99.40;;;;;;5031866;28;20512;-78
2023/03/14 02:52:14;;;;;;;57.92;31.35;;;11.30;99.50;;;;;;5031838;28;20504;-78
2023/03/14 02:55:22;;;;;;;50.33;30.15;;;11.40;99.60;;;;;;5031516;28;20056;-78
2023/03/14 02:58:28;;;;;;;53.70;30.80;;;11.50;99.60;;;;;;5031605;28;20049;-78
2023/03/14 03:01:39;;;;;;;49.90;29.55;;;;;;;;;;5031482;28;20052;-78
2023/03/14 03:04:43;;;;;;;47.60;28.48;;;13.20;99.70;;;;;;5031507;28;20040;-78
2023/03/14 03:07:48;;;;;;;56.15;31.13;;;;;;;;;;5054150;28;20386;-78
2023/03/14 03:10:52;;;;;;;50.05;28.52;;;;;;;;;;5031112;28;20052;-78
2023/03/14 03:13:56;;;;;;;58.15;29.70;;;11.30;99.10;;;;;;5031077;28;20052;-78
2023/03/14 03:17:00;;;;;;;56.55;29.13;;;11.20;99.70;;;;;;5042375;28;20556;-78
2023/03/14 03:20:06;;;;;;;51.00;27.92;;;12.00;99.80;;;;;;5031958;28;20056;-78
2023/03/14 03:23:10;;;;;;;43.83;25.33;;;10.70;99.30;;;;;;5030990;28;20095;-78
2023/03/14 03:26:16;;;;;;;47.03;26.58;;;11.00;99.30;;;;;;5030773;28;20078;-78
2023/03/14 03:29:21;;;;;;;51.75;25.67;;;;;;;;;;5042471;28;20600;-78
2023/03/14 03:32:24;;;;;;;42.63;27.38;;;11.00;99.80;;;;;;5030708;28;20041;-78
2023/03/14 03:35:28;;;;;;;46.85;25.13;;;11.10;99.70;;;;;;5030716;28;20056;-78
2023/03/14 03:38:34;;;;;;;44.75;28.33;;;12.90;99.90;;;;;;5042059;28;20405;-77
2023/03/14 03:41:41;;;;;;;50.45;26.23;;;;;;;;;;5030682;28;20096;-78
2023/03/14 03:44:47;;;;;;;44.20;24.70;;;;;;;;;;5030766;28;20053;-79
2023/03/14 03:47:51;;;;;;;48.72;26.10;;;;;;;;;;5030676;28;20048;-77
2023/03/14 03:50:55;;;;;;;43.15;25.00;;;11.10;99.20;;;;;;5032045;28;20509;-77
2023/03/14 03:54:00;;;;;;;43.85;24.95;;;11.40;99.70;;;;;;5030479;28;20120;-77
2023/03/14 03:57:08;;;;;;;44.13;25.48;;;11.20;99.60;;;;;;5030418;28;20401;-78
2023/03/14 04:00:12;;;;;;;46.15;25.00;;;11.10;99.60;;;;;;5030443;28;20048;-78
2023/03/14 04:03:19;;;;;;;40.25;24.30;;;11.10;99.50;;;;;;5031258;28;20049;-78
2023/03/14 04:06:23;;;;;;;41.83;23.83;;;11.00;99.30;;;;;;5030275;28;20045;-78
2023/03/14 04:09:30;;;;;;;43.05;22.95;;;11.00;99.30;;;;;;5030745;28;20048;-79
2023/03/14 04:12:49;;;;;;;34.78;21.65;;;11.40;99.40;;;;;;5029913;28;20052;-79
2023/03/14 04:15:58;;;;;;;37.45;21.83;;;11.00;99.00;;;;;;5052887;28;20052;-78
2023/03/14 04:19:04;;;;;;;41.47;22.08;;;11.00;98.90;;;;;;5030167;28;20524;-78
2023/03/14 04:22:09;;;;;;;40.28;21.42;;;11.00;98.90;;;;;;5030027;28;20046;-79
2023/03/14 04:25:22;;;;;;;45.38;21.58;;;11.00;99.30;;;;;;5030176;28;20052;-79
2023/03/14 04:28:32;;;;;;;39.03;22.92;;;10.80;99.10;;;;;;5029991;28;20128;-78
2023/03/14 04:31:37;;;;;;;39.28;21.42;;;10.80;99.60;;;;;;5029919;28;20057;-78
2023/03/14 04:34:41;;;;;;;42.85;21.20;;;10.70;99.50;;;;;;5029603;28;20060;-78
2023/03/14 04:37:48;;;;;;;38.70;20.67;;;11.60;99.90;;;;;;5030473;28;20048;-78
2023/03/14 04:40:53;;;;;;;49.72;22.73;;;;;;;;;;5029719;28;20489;-78
2023/03/14 04:44:00;;;;;;;51.70;22.52;;;10.70;99.90;;;;;;5029963;28;20060;-77
2023/03/14 04:47:04;;;;;;;40.30;20.90;;;10.10;99.90;;;;;;5041531;28;20056;-78
2023/03/14 04:50:10;;;;;;;39.85;20.95;;;10.20;99.90;;;;;;5029834;28;20044;-78
2023/03/14 04:53:14;;;;;;;38.17;20.45;;;10.80;99.90;;;;;;5029882;28;20040;-78
2023/03/14 04:56:21;;;;;;;41.78;19.92;;;10.50;99.90;;;;;;5029455;28;20513;-78
2023/03/14 04:59:25;;;;;;;39.08;20.17;;;10.50;99.90;;;;;;5029455;28;20044;-78
2023/03/14 05:02:32;;;;;;;33.72;19.05;;;10.50;99.90;;;;;;5029668;28;20036;-78
2023/03/14 05:06:00;;;;;;;42.22;19.17;;;10.50;99.90;;;;;;5033900;28;20049;-78
2023/03/14 05:09:19;;;;;;;37.08;18.77;;;8.90;99.90;;;;;;5031310;28;20060;-79
2023/03/14 05:12:48;;;;;;;36.97;20.30;;;10.70;99.90;;;;;;5044790;28;20041;-78
2023/03/14 05:16:26;;;;;;;31.65;16.98;;;10.40;99.90;;;;;;5033071;28;20061;-79
2023/03/14 05:19:41;;;;;;;37.58;17.92;;;10.40;99.90;;;;;;5033156;28;20044;-78
2023/03/14 05:23:08;;;;;;;32.42;17.48;;;10.20;99.90;;;;;;5033155;28;20049;-78
2023/03/14 05:26:31;;;;;;;44.08;20.10;;;;;;;;;;5033950;28;20052;-78
2023/03/14 05:29:42;;;;;;;33.67;18.20;;;;;;;;;;5033813;28;20052;-78
2023/03/14 05:33:14;;;;;;;35.05;16.80;;;11.70;99.90;;;;;;5032397;28;20036;-78
2023/03/14 05:36:37;;;;;;;27.45;15.65;;;9.20;99.90;;;;;;5033869;28;20566;-78
2023/03/14 05:40:02;;;;;;;24.73;14.40;;;10.10;99.90;;;;;;5037994;28;20052;-78
2023/03/14 05:43:16;;;;;;;29.10;13.52;;;10.30;99.90;;;;;;5044421;28;20040;-78
2023/03/14 05:46:44;;;;;;;29.25;12.57;;;10.30;99.90;;;;;;5033492;28;20040;-79
2023/03/14 05:50:13;;;;;;;25.38;10.82;;;11.10;99.90;;;;;;5032735;28;20040;-78
2023/03/14 05:53:31;;;;;;;23.27;10.82;;;12.10;98.20;;;;;;5044065;28;20048;-79
2023/03/14 05:57:11;;;;;;;26.25;11.10;;;12.80;98.50;;;;;;5033230;28;20056;-79
2023/03/14 06:00:35;;;;;;;21.75;10.00;;;13.70;95.90;;;;;;5033638;28;20032;-79
2023/03/14 06:03:55;;;;;;;19.83;10.25;;;14.80;94.40;;;;;;5044156;28;20056;-79
2023/03/14 06:06:59;;;;;;;19.77;8.65;;;15.70;92.40;;;;;;5033145;28;20045;-78
2023/03/14 06:10:03;;;;;;;19.65;8.77;;;16.00;91.70;;;;;;5032388;28;20060;-79
2023/03/14 06:13:08;;;;;;;18.15;7.55;;;;;;;;;;5054909;28;20496;-79
2023/03/14 06:16:13;;;;;;;23.52;7.70;;;16.50;91.00;;;;;;5020809;28;20047;-78
2023/03/14 06:19:18;;;;;;;23.75;6.65;;;16.70;90.50;;;;;;5032484;28;20060;-77
2023/03/14 06:22:22;;;;;;;16.10;6.85;;;16.50;90.20;;;;;;5031253;28;20044;-78
2023/03/14 06:25:25;;;;;;;16.27;6.50;;;15.00;89.20;;;;;;5031965;28;20056;-78
2023/03/14 06:28:29;;;;;;;21.73;7.40;;;17.20;89.70;;;;;;5031972;28;20461;-78
2023/03/14 06:31:37;;;;;;;21.55;7.45;;;18.10;90.20;;;;;;5032214;28;20064;-78
2023/03/14 06:34:44;;;;;;;31.83;7.10;;;17.60;89.10;;;;;;5031535;28;20056;-78
2023/03/14 06:37:49;;;;;;;26.58;7.93;;;18.30;87.70;;;;;;5031663;28;20500;-78
2023/03/14 06:40:53;;;;;;;19.15;7.78;;;18.00;87.30;;;;;;5032298;28;20413;-78
2023/03/14 06:44:08;;;;;;;43.83;10.93;;;17.30;89.40;;;;;;5031917;28;20050;-78
2023/03/14 06:47:12;;;;;;;29.83;10.30;;;17.00;90.70;;;;;;5032157;28;20032;-78
2023/03/14 06:50:19;;;;;;;32.42;9.80;;;16.60;91.00;;;;;;5031437;28;20060;-78
2023/03/14 06:53:25;;;;;;;27.92;9.82;;;16.50;91.40;;;;;;5031478;28;20032;-78
2023/03/14 06:56:30;;;;;;;33.47;10.63;;;16.60;91.80;;;;;;5031402;28;20044;-78
2023/03/14 06:59:35;;;;;;;25.83;10.18;;;17.00;91.80;;;;;;5032135;28;20041;-78
2023/03/14 07:02:40;;;;;;;27.25;10.63;;;17.20;91.60;;;;;;5032292;28;20053;-77
2023/03/14 07:05:45;;;;;;;27.55;11.65;;;17.50;91.20;;;;;;5032254;28;20052;-79
2023/03/14 07:08:49;;;;;;;27.02;11.50;;;17.50;91.00;;;;;;5031184;28;20402;-77
2023/03/14 07:11:55;;;;;;;31.63;11.27;;;17.50;91.30;;;;;;5054081;28;20049;-79
2023/03/14 07:15:00;;;;;;;31.35;12.02;;;17.30;91.40;;;;;;5054160;28;20056;-79
2023/03/14 07:18:05;;;;;;;25.85;12.40;;;16.90;91.70;;;;;;5053884;28;20044;-71
2023/03/14 07:21:09;;;;;;;27.33;11.20;;;16.70;92.40;;;;;;5030952;28;20056;-68
2023/03/14 07:24:14;;;;;;;34.05;10.65;;;16.70;92.60;;;;;;5030916;28;20052;-66
2023/03/14 07:27:20;;;;;;;29.90;11.90;;;16.80;92.70;;;;;;5031873;28;20052;-69
2023/03/14 07:30:26;;;;;;;28.15;11.85;;;16.80;92.50;;;;;;5053716;28;20108;-69
2023/03/14 07:33:31;;;;;;;21.90;10.20;;;17.00;92.10;;;;;;5042124;28;20049;-69
2023/03/14 07:36:35;;;;;;;29.80;10.95;;;17.10;91.60;;;;;;5030583;28;20040;-71
2023/03/14 07:39:40;;;;;;;22.90;10.27;;;17.20;91.40;;;;;;5030466;28;20057;-64
2023/03/14 07:42:50;;;;;;;39.33;10.98;;;17.30;91.40;;;;;;5042245;28;20045;-67
2023/03/14 07:46:06;;;;;;;21.50;10.38;;;17.10;91.90;;;;;;5030823;28;20049;-72
2023/03/14 07:49:10;;;;;;;30.20;11.27;;;17.00;92.10;;;;;;5031335;28;20068;-67
2023/03/14 07:52:14;;;;;;;32.80;12.80;;;16.90;92.40;;;;;;5031099;28;20048;-67
2023/03/14 07:55:18;;;;;;;20.83;11.45;;;16.90;92.60;;;;;;5030994;28;20056;-67
2023/03/14 07:58:22;;;;;;;32.88;13.05;;;16.90;92.60;;;;;;5030900;28;20036;-66
2023/03/14 08:01:27;;;;;;;31.55;12.05;;;16.90;92.90;;;;;;5030968;28;20413;-66
2023/03/14 08:04:32;;;;;;;34.88;11.50;;;16.80;92.80;;;;;;5030752;28;20048;-66
2023/03/14 08:07:36;;;;;;;37.25;12.00;;;16.90;92.40;;;;;;5030885;28;20052;-68
2023/03/14 08:10:41;;;;;;;28.70;10.73;;;16.80;92.10;;;;;;5030986;28;20036;-69
2023/03/14 08:13:49;;;;;;;33.75;12.77;;;17.00;91.90;;;;;;5030982;28;20064;-69
2023/03/14 08:16:54;;;;;;;23.60;10.52;;;17.00;92.00;;;;;;5030726;28;20040;-69
2023/03/14 08:19:57;;;;;;;27.42;11.25;;;17.00;92.00;;;;;;5030774;28;20048;-69
2023/03/14 08:23:01;;;;;;;31.70;12.05;;;17.10;92.10;;;;;;5030808;28;20056;-68
2023/03/14 08:26:06;;;;;;;22.50;10.93;;;17.20;91.90;;;;;;5030628;28;20052;-72
2023/03/14 08:29:12;;;;;;;24.10;11.65;;;17.20;92.60;;;;;;5030877;28;20044;-70
2023/03/14 08:32:16;;;;;;;27.13;13.23;;;17.40;92.90;;;;;;5030947;28;20095;-70
2023/03/14 08:35:20;;;;;;;34.35;12.27;;;17.50;92.90;;;;;;5030217;28;20049;-68
2023/03/14 08:38:25;;;;;;;25.58;12.05;;;17.60;92.50;;;;;;5030792;28;20492;-68
2023/03/14 08:41:29;;;;;;;19.30;8.93;;;17.60;91.90;;;;;;5030465;28;20048;-67
2023/03/14 08:44:33;;;;;;;24.40;9.75;;;17.60;90.50;;;;;;5033519;28;20040;-67
2023/03/14 08:47:37;;;;;;;20.00;9.02;;;17.60;90.50;;;;;;5037222;28;20068;-68
2023/03/14 08:50:41;;;;;;;18.90;7.88;;;17.60;90.10;;;;;;5037467;28;20588;-69
2023/03/14 08:53:45;;;;;;;14.30;7.20;;;17.50;89.30;;;;;;5037790;28;20048;-68
2023/03/14 08:56:48;;;;;;;13.48;7.05;;;17.50;89.50;;;;;;5036792;28;20044;-70
2023/03/14 08:59:57;;;;;;;20.45;6.30;;;17.50;90.20;;;;;;5037287;28;20045;-71
2023/03/14 09:03:01;;;;;;;10.35;5.38;;;17.50;90.00;;;;;;5037340;28;20056;-74
2023/03/14 09:06:07;;;;;;;21.63;6.40;;;17.60;89.70;;;;;;5037090;28;20049;-70
2023/03/14 09:09:13;;;;;;;22.90;6.65;;;17.80;89.20;;;;;;5038306;28;20045;-69
2023/03/14 09:12:17;;;;;;;16.85;6.78;;;17.90;88.10;;;;;;5036980;28;20040;-70
2023/03/14 09:15:21;;;;;;;11.30;5.30;;;17.90;87.60;;;;;;5036544;28;20140;-71
2023/03/14 09:18:25;;;;;;;14.98;5.90;;;17.90;88.00;;;;;;5037019;28;20105;-71
2023/03/14 09:21:30;;;;;;;26.25;7.53;;;18.10;88.20;;;;;;5037297;28;20040;-71
2023/03/14 09:24:34;;;;;;;17.58;6.45;;;18.30;86.30;;;;;;5036782;28;20048;-72
2023/03/14 09:27:38;;;;;;;16.63;6.57;;;18.30;85.30;;;;;;5036836;28;20064;-71
2023/03/14 09:30:41;;;;;;;17.48;6.80;;;18.30;85.10;;;;;;5036482;28;20113;-71
2023/03/14 09:33:46;;;;;;;15.20;6.00;;;18.30;84.60;;;;;;5036496;28;20044;-71
2023/03/14 09:36:50;;;;;;;11.85;5.88;;;18.40;85.00;;;;;;5036534;28;20496;-71
2023/03/14 09:39:53;;;;;;;22.98;6.35;;;18.50;84.30;;;;;;5037277;28;20052;-71
2023/03/14 09:42:58;;;;;;;10.80;6.20;;;18.60;83.10;;;;;;5037362;28;20044;-70
2023/03/14 09:46:03;;;;;;;12.70;6.55;;;18.70;83.30;;;;;;5036730;28;20049;-71
2023/03/14 09:49:33;;;;;;;10.95;6.50;;;18.90;82.60;;;;;;5036119;28;20044;-70
2023/03/14 09:52:41;;;;;;;16.52;7.00;;;19.10;81.50;;;;;;5036553;28;20048;-71
2023/03/14 09:55:47;;;;;;;11.05;5.53;;;19.20;81.40;;;;;;5033976;28;20056;-70
2023/03/14 09:58:57;;;;;;;11.05;5.50;;;19.30;80.90;;;;;;5033609;28;20040;-71
2023/03/14 10:02:11;;;;;;;12.20;5.13;;;19.40;80.00;;;;;;5033515;28;20052;-70
2023/03/14 10:05:18;;;;;;;6.05;3.92;;;19.50;78.60;;;;;;5033255;28;20500;-71
2023/03/14 10:08:22;;;;;;;11.45;5.25;;;19.60;75.70;;;;;;5033270;28;20468;-71
2023/03/14 10:11:26;;;;;;;7.20;2.58;;;19.80;67.80;;;;;;5033409;28;20049;-71
2023/03/14 10:14:36;;;;;;;7.60;2.35;;;20.00;65.00;;;;;;5032933;28;20060;-71
2023/03/14 10:17:47;;;;;;;6.70;2.22;;;20.10;64.60;;;;;;5033015;28;20571;-72
2023/03/14 10:21:33;;;;;;;5.30;2.28;;;20.20;63.10;;;;;;5032775;28;20060;-71
2023/03/14 10:24:37;;;;;;;3.38;2.10;;;20.20;61.80;;;;;;5032572;28;20048;-72
2023/03/14 10:27:41;;;;;;;11.48;2.60;;;20.20;61.60;;;;;;5032486;28;20052;-70
2023/03/14 10:30:46;;;;;;;4.60;1.98;;;20.30;61.90;;;;;;5032832;28;20068;-72
2023/03/14 10:34:04;;;;;;;6.65;1.80;;;20.30;61.60;;;;;;5032726;28;20056;-70
2023/03/14 10:37:22;;;;;;;7.40;2.08;;;20.30;60.30;;;;;;5032306;28;20052;-70
2023/03/14 10:40:30;;;;;;;6.80;2.05;;;20.30;61.50;;;;;;5032285;28;20056;-70
2023/03/14 10:43:35;;;;;;;15.68;6.63;;;20.40;61.20;;;;;;5032816;28;20040;-71
2023/03/14 10:46:40;;;;;;;17.23;6.18;;;20.40;70.00;;;;;;5032285;28;20044;-71
2023/03/14 10:50:30;;;;;;;18.25;6.00;;;20.50;72.00;;;;;;5031968;28;20040;-71
2023/03/14 10:53:44;;;;;;;17.70;5.10;;;20.70;70.50;;;;;;5032221;28;20045;-71
2023/03/14 10:57:00;;;;;;;13.43;4.18;;;20.80;69.20;;;;;;5032183;28;20057;-71
2023/03/14 11:00:11;;;;;;;10.23;2.08;;;20.90;66.90;;;;;;5031946;28;20044;-71
2023/03/14 11:03:16;;;;;;;;;;;20.90;60.50;;;;;;5032326;28;20045;-71
2023/03/14 11:06:44;;;;;;;7.13;2.60;;;20.90;60.60;;;;;;5031588;28;19909;-71
2023/03/14 11:09:48;;;;;;;9.70;2.40;;;20.80;60.90;;;;;;5031918;28;20052;-72
2023/03/14 11:13:17;;;;;;;4.85;2.10;;;20.70;60.30;;;;;;5032040;28;20040;-69
2023/03/14 11:16:28;;;;;;;4.95;1.80;;;20.70;60.40;;;;;;5031577;28;20048;-68
2023/03/14 11:19:41;;;;;;;4.80;2.53;;;20.70;60.60;;;;;;5032132;28;20401;-71
2023/03/14 11:23:03;;;;;;;5.10;2.08;;;20.80;60.60;;;;;;5032101;28;20621;-71
2023/03/14 11:26:42;;;;;;;9.13;4.15;;;20.90;61.80;;;;;;5032008;28;20050;-70
2023/03/14 11:30:37;;;;;;;9.73;3.60;;;21.00;63.90;;;;;;5031751;28;20086;-71
2023/03/14 11:34:09;;;;;;;7.65;2.30;;;21.00;63.00;;;;;;5029533;28;20711;-70
2023/03/14 11:37:31;;;;;;;14.77;2.20;;;21.10;63.20;;;;;;5031821;28;20527;-71
2023/03/14 11:40:38;;;;;;;7.20;2.78;;;21.20;62.00;;;;;;5031461;28;20061;-71
2023/03/14 11:43:48;;;;;;;6.13;2.13;;;21.20;62.80;;;;;;5031553;28;20048;-76
2023/03/14 11:47:28;;;;;;;14.02;2.47;;;21.30;63.10;;;;;;5031340;28;20045;-68
2023/03/14 11:50:33;;;;;;;6.57;2.47;;;21.20;62.40;;;;;;5031510;28;20049;-69
2023/03/14 11:54:05;;;;;;;6.90;1.95;;;21.30;63.40;;;;;;5031557;28;20047;-69
2023/03/14 11:57:18;;;;;;;3.17;1.38;;;21.30;63.10;;;;;;5031293;28;20116;-72
2023/03/14 12:00:23;;;;;;;14.13;2.00;;;21.30;60.50;;;;;;5031598;28;20052;-72
2023/03/14 12:03:56;;;;;;;7.20;1.92;;;21.20;60.90;;;;;;5031143;28;20048;-71
2023/03/14 12:07:02;;;;;;;;;;;21.20;59.20;;;;;;5031025;28;20504;-70
2023/03/14 12:10:06;;;;;;;18.48;2.75;;;21.20;60.00;;;;;;5030165;28;19909;-71
2023/03/14 12:13:13;;;;;;;11.82;1.92;;;21.20;59.50;;;;;;5030840;28;20048;-70
2023/03/14 12:16:23;;;;;;;14.23;2.15;;;21.20;60.00;;;;;;5030632;28;20512;-70
2023/03/14 12:19:31;;;;;;;10.45;1.80;;;21.20;60.20;;;;;;5030035;28;20449;-70
2023/03/14 12:22:46;;;;;;;7.18;1.40;;;21.30;60.00;;;;;;5030741;28;20522;-69
2023/03/14 12:26:07;;;;;;;5.05;1.30;;;21.10;60.20;;;;;;5030536;28;20393;-69
2023/03/14 12:29:17;;;;;;;6.13;1.60;;;21.00;60.40;;;;;;5030484;28;20390;-70
2023/03/14 12:32:23;;;;;;;10.80;1.50;;;20.90;60.30;;;;;;5030937;28;20052;-70
2023/03/14 12:35:36;;;;;;;8.35;3.97;;;20.90;60.10;;;;;;5029791;28;20052;-70
2023/03/14 12:39:05;;;;;;;11.75;2.20;;;21.00;60.30;;;;;;5030566;28;20040;-70
2023/03/14 12:42:35;;;;;;;6.20;1.50;;;21.10;60.50;;;;;;5030392;28;20099;-71
2023/03/14 12:45:39;;;;;;;9.27;1.70;;;21.20;59.30;;;;;;5030096;28;20037;-70
2023/03/14 12:48:46;;;;;;;9.07;1.63;;;21.20;59.40;;;;;;5030733;28;20048;-70
2023/03/14 12:51:59;;;;;;;9.75;1.65;;;21.10;59.10;;;;;;5030731;28;20044;-70
2023/03/14 12:55:14;;;;;;;8.45;1.88;;;21.00;59.30;;;;;;5030413;28;20056;-71
2023/03/14 12:58:22;;;;;;;8.48;2.22;;;21.10;59.70;;;;;;5030577;28;20045;-72
2023/03/14 13:01:26;;;;;;;6.97;1.65;;;21.20;60.00;;;;;;5030577;28;20048;-72
2023/03/14 13:04:42;;;;;;;7.22;1.50;;;21.20;60.10;;;;;;5030635;28;20045;-71
2023/03/14 13:07:46;;;;;;;12.05;1.90;;;21.10;58.70;;;;;;5030453;28;20033;-71
2023/03/14 13:10:50;;;;;;;9.52;1.98;;;21.00;59.30;;;;;;5030244;28;20044;-71
2023/03/14 13:13:58;;;;;;;7.03;1.38;;;20.90;59.50;;;;;;5029072;28;20386;-70
2023/03/14 13:17:03;;;;;;;10.93;1.67;;;20.70;59.30;;;;;;5030510;28;20056;-69
2023/03/14 13:20:15;;;;;;;8.82;1.40;;;20.50;59.20;;;;;;5030001;28;20029;-69
2023/03/14 13:23:27;;;;;;;7.90;1.80;;;20.40;59.70;;;;;;5030199;28;20041;-70
2023/03/14 13:26:37;;;;;;;9.60;1.73;;;20.30;60.50;;;;;;5029938;28;20044;-70
2023/03/14 13:29:41;;;;;;;10.38;2.03;;;20.30;63.40;;;;;;5030405;28;20168;-70
2023/03/14 13:32:47;;;;;;;15.73;2.00;;;20.30;65.00;;;;;;5033965;28;20416;-70
2023/03/14 13:36:03;;;;;;;12.77;1.90;;;20.30;65.70;;;;;;5033623;28;20056;-70
2023/03/14 13:39:18;;;;;;;10.55;2.00;;;20.40;65.60;;;;;;5033720;28;20048;-67
2023/03/14 13:42:28;;;;;;;6.72;1.48;;;20.30;64.50;;;;;;5033956;28;20056;-69
2023/03/14 13:45:47;;;;;;;5.55;1.30;;;20.20;63.60;;;;;;5033807;28;20500;-70
2023/03/14 13:48:58;;;;;;;11.02;1.40;;;20.20;62.60;;;;;;5034064;28;20052;-69
2023/03/14 13:52:03;;;;;;;5.90;1.50;;;20.20;62.30;;;;;;5033670;28;20048;-70
2023/03/14 13:55:15;;;;;;;30.10;3.15;;;20.20;63.00;;;;;;5033448;28;20044;-69
2023/03/14 13:58:28;;;;;;;11.60;1.75;;;20.10;62.60;;;;;;5033441;28;20188;-70
2023/03/14 14:01:35;;;;;;;4.50;1.30;;;20.00;63.10;;;;;;5033659;28;20049;-70
2023/03/14 14:04:38;;;;;;;3.88;1.25;;;19.90;63.40;;;;;;5033617;28;20531;-69
2023/03/14 14:07:44;;;;;;;6.55;1.92;;;19.70;63.80;;;;;;5033151;28;20064;-69
2023/03/14 14:10:49;;;;;;;6.53;1.73;;;19.70;65.20;;;;;;5033377;28;20053;-69
2023/03/14 14:13:54;;;;;;;11.30;2.05;;;19.50;70.00;;;;;;5033418;28;20449;-69
2023/03/14 14:17:01;;;;;;;11.27;2.03;;;19.30;73.80;;;;;;5032851;28;20052;-69
2023/03/14 14:20:12;;;;;;;15.82;2.28;;;19.10;75.90;;;;;;5033119;28;20061;-69
2023/03/14 14:23:25;;;;;;;10.48;2.42;;;18.90;79.60;;;;;;5033206;28;20044;-69
2023/03/14 14:26:29;;;;;;;10.40;2.05;;;18.80;80.60;;;;;;5033027;28;20052;-69
2023/03/14 14:29:34;;;;;;;18.48;3.05;;;18.60;80.20;;;;;;5032468;28;20065;-69
2023/03/14 14:32:39;;;;;;;10.50;3.20;;;18.50;85.00;;;;;;5033106;28;20057;-69
2023/03/14 14:35:51;;;;;;;9.90;2.55;;;18.20;84.80;;;;;;5032527;28;20049;-70
2023/03/14 14:39:15;;;;;;;16.80;2.13;;;18.10;84.70;;;;;;5032521;28;20040;-70
2023/03/14 14:42:24;;;;;;;9.77;2.65;;;18.10;85.30;;;;;;5032141;28;20082;-70
2023/03/14 14:45:28;;;;;;;11.43;2.33;;;18.00;88.20;;;;;;5032798;28;20504;-70
2023/03/14 14:48:37;;;;;;;8.13;3.10;;;17.90;87.60;;;;;;5032426;28;20048;-69
2023/03/14 14:51:48;;;;;;;10.93;2.72;;;17.90;85.80;;;;;;5032525;28;20370;-69
2023/03/14 14:54:57;;;;;;;13.20;1.95;;;17.80;86.90;;;;;;5032323;28;20052;-69
2023/03/14 14:58:24;;;;;;;9.63;2.65;;;17.80;88.80;;;;;;5032304;28;20500;-69
2023/03/14 15:01:34;;;;;;;15.02;4.80;;;17.70;85.70;;;;;;5032489;28;20382;-70
2023/03/14 15:04:38;;;;;;;15.32;3.63;;;17.60;88.40;;;;;;5032015;28;20044;-69
2023/03/14 15:07:42;;;;;;;9.38;4.32;;;17.60;87.50;;;;;;5031907;28;20072;-69
2023/03/14 15:10:46;;;;;;;15.07;3.85;;;17.60;86.60;;;;;;5032442;28;20052;-69
2023/03/14 15:13:51;;;;;;;12.52;3.72;;;17.60;89.50;;;;;;5032212;28;20044;-71
2023/03/14 15:16:55;;;;;;;12.00;4.13;;;17.70;89.70;;;;;;5031507;28;20512;-68
2023/03/14 15:19:59;;;;;;;9.23;2.97;;;17.70;90.10;;;;;;5031558;28;20048;-70
2023/03/14 15:23:10;;;;;;;11.25;3.08;;;17.80;87.20;;;;;;5031559;28;20531;-69
2023/03/14 15:26:21;;;;;;;11.23;2.88;;;17.80;84.70;;;;;;5031822;28;20060;-68
2023/03/14 15:29:25;;;;;;;10.88;2.90;;;17.80;83.50;;;;;;5031653;28;20064;-71
2023/03/14 15:32:30;;;;;;;16.15;3.00;;;17.90;83.90;;;;;;5031905;28;20595;-69
2023/03/14 15:35:35;;;;;;;10.45;2.95;;;17.80;85.30;;;;;;5031573;28;20507;-68
2023/03/14 15:38:39;;;;;;;10.65;2.35;;;17.80;87.50;;;;;;5031652;28;20044;-68
2023/03/14 15:41:43;;;;;;;15.23;2.67;;;17.80;88.40;;;;;;5031306;28;20536;-68
2023/03/14 15:44:49;;;;;;;9.95;3.03;;;17.70;89.20;;;;;;5031086;28;20593;-71
2023/03/14 15:47:54;;;;;;;16.33;3.80;;;17.70;89.50;;;;;;5031626;28;20048;-68
2023/03/14 15:50:57;;;;;;;15.77;4.63;;;17.60;89.50;;;;;;5031421;28;20044;-73
2023/03/14 15:54:01;;;;;;;10.85;4.07;;;17.60;89.90;;;;;;5030410;28;20048;-70
2023/03/14 15:57:06;;;;;;;12.00;3.90;;;17.50;90.00;;;;;;5030060;28;20071;-69
2023/03/14 16:00:17;;;;;;;15.40;3.78;;;17.50;90.00;;;;;;5031249;28;20060;-72
2023/03/14 16:03:21;;;;;;;13.10;3.58;;;17.40;91.10;;;;;;5031285;28;20040;-72
2023/03/14 16:06:25;;;;;;;12.13;3.38;;;17.20;92.20;;;;;;5031038;28;20040;-69
2023/03/14 16:09:29;;;;;;;12.13;2.95;;;17.10;93.00;;;;;;5030895;28;20040;-70
2023/03/14 16:12:34;;;;;;;15.27;2.78;;;16.80;93.50;;;;;;5030933;28;20060;-68
2023/03/14 16:15:37;;;;;;;9.65;3.83;;;16.50;93.90;;;;;;5030638;28;20504;-67
2023/03/14 16:18:41;;;;;;;8.80;3.58;;;16.50;94.10;;;;;;5030916;28;20048;-68